Rogers Spring, Nevada Weather observations

Data are for 10 minute period ending at time listed.
 Day   Time   Solar   Ave.   Ave.  Ave.  Vector  Max.   Baro.   Total    
  of    of     Rad.   Air    Rel.  Wind   Wind   Wind  Press.  Precip.   
Year   Day            Temp.  Hum.  Speed  Dir.   Gust                    
2017   (PST)  Kw/m2    F      %     mph   deg.    mph    mb.     in.     
-------------------------------------------------------------------------
  35   21:00   0.00   44.9    71    3.0    67     3.9   935.3    0.00 
  35   21:10   0.00   45.0    70    2.8    81     4.3   935.3    0.00 
  35   21:20   0.00   44.3    71    2.3    71     3.9   935.5    0.00 
  35   21:30   0.00   43.3    72    1.9    81     2.4   935.5    0.00 
  35   21:40   0.00   42.1    75    2.4    82     3.0   935.5    0.00 
  35   21:50   0.00   42.2    75    1.9    75     2.8   935.6    0.00 
  35   22:00   0.00   41.4    78    3.6    58     4.7   935.7    0.00 
  35   22:10   0.00   41.0    79    3.2    66     4.2   935.8    0.00 
  35   22:20   0.00   42.0    78    3.6    76     5.6   936.0    0.00 
  35   22:30   0.00   44.6    73    4.0    79     6.8   936.1    0.00 
  35   22:40   0.00   44.9    71    4.3    80     7.3   936.1    0.00 
  35   22:50   0.00   45.2    71    3.7    82     5.8   936.0    0.00 
  35   23:00   0.00   45.5    70    3.8    76     6.2   935.9    0.00 
  35   23:10   0.00   44.5    72    3.2    58     4.1   935.9    0.00 
  35   23:20   0.00   43.1    76    3.3    46     4.5   935.9    0.00 
  35   23:30   0.00   42.1    78    3.7    57     4.7   936.0    0.00 
  35   23:40   0.00   41.9    78    3.8    66     5.0   935.9    0.00 
  35   23:50   0.00   42.0    78    3.5    81     5.3   935.9    0.00 
  36    0:00   0.00   41.8    78    3.5    64     5.4   935.7    0.00 
  36    0:10   0.00   40.9    80    3.1    56     4.6   935.6    0.00 
  36    0:20   0.00   40.0    81    2.1    59     3.5   935.5    0.00 
  36    0:30   0.00   39.1    83    2.6    55     3.7   935.6    0.00 
  36    0:40   0.00   38.6    84    2.3    48     3.5   935.8    0.00 
  36    0:50   0.00   38.1    86    1.5    24     2.6   936.0    0.00 
  36    1:00   0.00   37.5    86    0.4    12     1.8   936.0    0.00 
  36    1:10   0.00   36.7    87    0.2    12     1.2   936.1    0.00 
  36    1:20   0.00   36.6    89    1.2    28     1.8   936.1    0.00 
  36    1:30   0.00   36.4    89    0.2    49     1.0   936.0    0.00 
  36    1:40   0.00   35.6    90    0.6    55     2.3   935.9    0.00 
  36    1:50   0.00   34.8    90    2.3    63     4.1   936.0    0.00 
  36    2:00   0.00   35.5    92    3.3    73     4.4   935.9    0.00 
  36    2:10   0.00   37.3    90    2.7    81     4.4   935.8    0.00 
  36    2:20   0.00   37.7    88    2.6    74     4.1   935.6    0.00 
  36    2:30   0.00   36.6    88    2.7    55     3.4   935.5    0.00 
  36    2:40   0.00   36.4    90    2.4    62     3.4   935.5    0.00 
  36    2:50   0.00   35.8    90    2.8    63     3.7   935.4    0.00 
  36    3:00   0.00   35.3    90    3.5    58     4.9   935.4    0.00 
  36    3:10   0.00   36.1    91    3.5    66     4.6   935.4    0.00 
  36    3:20   0.00   35.9    89    2.7    69     3.9   935.3    0.00 
  36    3:30   0.00   35.6    89    1.0    69     2.4   935.2    0.00 
  36    3:40   0.00   35.6    90    2.2    94     3.1   935.2    0.00 
  36    3:50   0.00   34.8    90    1.7    33     2.4   935.2    0.00 
  36    4:00   0.00   34.3    92    2.5    42     3.3   935.3    0.00 
  36    4:10   0.00   33.8    92    2.7    54     4.0   935.2    0.00 
  36    4:20   0.00   34.0    93    2.9    62     3.8   935.1    0.00 
  36    4:30   0.00   33.9    93    2.5    48     3.3   935.1    0.00 
  36    4:40   0.00   34.2    94    2.2    32     3.1   935.1    0.00 
  36    4:50   0.00   33.8    93    1.8   103     3.1   935.1    0.00 
  36    5:00   0.00   34.5    94    2.0    88     4.0   935.1    0.00 
  36    5:10   0.00   34.8    94    1.2    94     2.6   935.1    0.00 
  36    5:20   0.00   33.0    93    0.7    25     1.8   935.3    0.00 
  36    5:30   0.00   32.1    94    0.5    47     1.8   935.4    0.00 
  36    5:40   0.00   30.8    93    0.1    47     1.1   935.6    0.00 
  36    5:50   0.00   31.6    95    0.4   110     1.7   935.6    0.00 
  36    6:00   0.00   32.6    95    1.5    83     2.9   935.5    0.00 
  36    6:10   0.00   32.9    95    1.8    30     3.7   935.4    0.00 
  36    6:20   0.00   34.2    96    2.3    39     3.8   935.4    0.00 
  36    6:30   0.00   35.8    96    2.0    42     3.8   935.6    0.00 
  36    6:40   0.00   35.7    95    0.8    75     2.6   935.7    0.00 
  36    6:50   0.00   34.3    94    1.1   160     2.6   935.7    0.00 
  36    7:00   0.00   32.6    94    0.3   136     1.8   935.7    0.00 
  36    7:10   0.00   32.7    95    0.5    92     2.3   935.6    0.00 
  36    7:20   0.00   35.8    96    1.5    37     2.2   935.8    0.00 
  36    7:30   0.00   38.2    94    1.7    28     2.9   935.9    0.00 
  36    7:40   0.00   38.9    92    1.2    56     1.9   935.9    0.00 
  36    7:50   0.00   39.2    90    0.8    61     2.0   936.0    0.00 
  36    8:00   0.00   41.0    88    1.0    17     2.5   936.0    0.00 
  36    8:10   0.00   43.2    85    1.6    44     2.9   936.0    0.00 
  36    8:20   0.00   45.5    78    1.0    55     2.0   935.8    0.00 
  36    8:30   0.00   47.1    74    0.4    57     1.5   935.9    0.00 
  36    8:40   0.00   49.3    68    0.5    44     2.1   935.9    0.00 
  36    8:50   0.00   48.6    66    1.7    24     3.7   935.7    0.00 
  36    9:00   0.00   49.6    65    1.8    27     3.7   935.7    0.00 
  36    9:10   0.00   50.6    63    2.1     9     4.0   935.6    0.00 
  36    9:20   0.00   51.8    60    1.4    26     4.0   935.7    0.00 
  36    9:30   0.00   52.8    57    1.3    23     2.7   935.6    0.00 
  36    9:40   0.13   54.5    54    0.9   180     3.9   935.5    0.00 
  36    9:50   0.30   55.3    52    0.7   283     2.2   935.6    0.00 
  36   10:00   0.33   55.7    52    1.2   273     3.4   935.6    0.00 
  36   10:10   0.36   56.5    51    1.7   323     4.0   935.5    0.00 
  36   10:20   0.37   57.8    48    1.6    33     5.3   935.4    0.00 
  36   10:30   0.35   58.5    45    1.8   104     4.4   935.4    0.00 
  36   10:40   0.35   58.0    45    2.4    29     4.9   935.4    0.00 
  36   10:50   0.37   58.4    45    2.4    59     5.5   935.4    0.00 
  36   11:00   0.38   59.0    44    2.2    54     4.4   935.3    0.00 
  36   11:10   0.34   59.2    44    3.0    14     6.4   935.0    0.00 
  36   11:20   0.32   59.5    43    2.8    33     5.6   934.8    0.00 
  36   11:30   0.34   59.7    43    3.0   352     5.2   934.5    0.00 
  36   11:40   0.33   60.1    42    2.3    64     4.5   934.3    0.00 
  36   11:50   0.39   60.9    39    2.2    74     4.0   934.0    0.00 
  36   12:00   0.33   60.7    40    1.6    80     4.9   933.7    0.00 
  36   12:10   0.35   61.5    38    3.1    74     5.8   933.3    0.00 
  36   12:20   0.32   61.7    38    2.7    88     6.1   932.7    0.00 
  36   12:30   0.25   61.4    38    2.5   108     5.0   932.4    0.00 
  36   12:40   0.21   61.0    39    1.8    68     3.8   932.3    0.00 
  36   12:50   0.23   61.1    39    1.3   160     4.9   932.0    0.00 
  36   13:00   0.25   61.8    39    2.7   177     5.5   931.8    0.00 
  36   13:10   0.26   62.2    38    3.1   171     6.4   931.7    0.00 
  36   13:20   0.38   62.9    37    3.3   181     7.2   931.7    0.00 
  36   13:30   0.26   63.4    35    3.9   168     7.2   931.7    0.00 
  36   13:40   0.30   62.7    36    3.0   184     6.0   931.6    0.00 
  36   13:50   0.30   63.3    35    4.4   177     8.3   931.6    0.00 
  36   14:00   0.39   64.2    35    3.3   210     8.4   931.7    0.00 
  36   14:10   0.21   63.7    34    4.2   189     8.5   931.6    0.00 
  36   14:20   0.20   62.7    36    4.7   188    10.0   931.6    0.00 
  36   14:30   0.22   63.5    35    5.6   177    10.7   931.4    0.00 
  36   14:40   0.15   63.6    34    6.2   172    12.3   931.3    0.00 
  36   14:50   0.12   63.0    34    5.8   178    12.4   931.1    0.00 
  36   15:00   0.11   63.0    34    5.7   181    11.2   931.0    0.00 
  36   15:10   0.10   62.9    34    6.4   167    11.9   930.8    0.00 
  36   15:20   0.13   62.9    32    8.3   167    13.4   930.7    0.00 
  36   15:30   0.15   63.6    32    8.3   176    16.7   930.7    0.00 
  36   15:40   0.12   63.6    31    9.0   183    15.3   930.8    0.00 
  36   15:50   0.09   62.8    33    8.2   184    13.7   930.7    0.00 
  36   16:00   0.07   62.4    35    7.6   189    13.2   930.7    0.00 
  36   16:10   0.04   61.8    36    8.4   194    13.5   930.7    0.00 
  36   16:20   0.01   61.3    38    6.7   190    12.1   930.7    0.00 
  36   16:30   0.00   60.8    39    7.1   189    12.6   930.7    0.00 
  36   16:40   0.00   60.3    40    5.7   170    11.7   930.5    0.00 
  36   16:50   0.00   59.7    41    5.2   165    11.1   930.4    0.00 
  36   17:00   0.00   59.3    42    5.9   172    11.0   930.3    0.00 
  36   17:10   0.00   58.9    43    6.7   175    13.4   930.0    0.00 
  36   17:20   0.00   58.7    42    8.8   178    14.7   929.8    0.00 
  36   17:30   0.00   58.8    42    8.7   181    14.9   929.8    0.00 
  36   17:40   0.00   58.6    42    8.2   176    16.6   929.8    0.00 
  36   17:50   0.00   58.3    43    7.8   170    13.2   929.7    0.00 
  36   18:00   0.00   58.3    43    7.5   174    12.6   929.8    0.00 
  36   18:10   0.00   57.5    44    4.8   156     9.1   929.9    0.00 
  36   18:20   0.00   56.7    46    5.2   165     9.2   929.9    0.00 
  36   18:30   0.00   56.4    47    6.4   166    10.4   929.9    0.00 
  36   18:40   0.00   56.0    46    5.5   171    10.8   929.6    0.00 
  36   18:50   0.00   55.9    45    5.6   176     9.8   929.5    0.00 
  36   19:00   0.00   56.0    45    6.5   174    11.8   929.4    0.00 
  36   19:10   0.00   56.7    43    6.9   160    12.9   929.4    0.00 
  36   19:20   0.00   56.6    44    5.5   166    11.7   929.3    0.00 
  36   19:30   0.00   56.3    44    6.4   169    12.1   929.3    0.00 
  36   19:40   0.00   55.9    46    5.8   166    11.2   929.2    0.00 
  36   19:50   0.00   55.6    45    5.6   164    13.3   929.3    0.00 
  36   20:00   0.00   56.4    44    6.8   158    14.1   929.3    0.00 
  36   20:10   0.00   55.8    45    5.5   162    10.1   929.3    0.00 
  36   20:20   0.00   54.6    48    3.8   162     7.7   929.3    0.00 
  36   20:30   0.00   53.7    49    4.0   162     8.1   929.2    0.00 
  36   20:40   0.00   53.6    50    4.1   146     8.3   929.0    0.00 
  36   20:50   0.00   53.6    49    3.8   155     8.2   928.8    0.00 

Return to Rogers Spring graphs page.


Western Regional Climate Center,wrcc@dri.edu